Main page
METAR-TAF:

METAR-TAF

Airports :

Cervia, Italy

Cervia Air Base

latitude: 44-13N, longitude: 012-18E, elevation: 6 m

Current weather observation

The report was made 49 minutes ago, at 19:55 UTC
Wind 5 kt from the Southeast
Temperature 25°C
Humidity 100%
Pressure 1006 hPa
Visibility 10 km or more
no clouds below 1500 m and no cumulonimbus

METAR: LIPC 271955Z 13005KT CAVOK 25/25 Q1006 RMK BKN SCT080 SCT200 VIS MIN 9999 WIND THR11 13004KT WIND THR29 12005KT BLU

Time: 22:44 (20:44 UTC)

Forecast

The report was made 44 minutes ago, at 20:00 UTC
Forecast valid from 27 at 21 UTC to 28 at 06 UTC
Wind 5 kt from the Southeast
Visibility 10 km or more
Few clouds at a height of 4000 ft
Becoming
from 28 at 00 UTC to 28 at 02 UTC
Wind 10 kt from the Southwest

TAF: LIPC 272000Z 2721/2806 13005KT 9999 FEW040 BECMG 2800/2802 22010KT

Weather observations and forecasts of more than 4000 airports (METAR and TAF reports).

The available stations are represented by yellow and red dots on the map.

Hover mouse over dot to see the name of the station.

Then click to see weather observations and forecasts.

To change the map : click on the green buttons with a black cross to zoom in, on the green button with a dash to zoom out, or on the green arrows for adjacent maps.


METAR-TAF: